sensor_id;sensor_type;location;lat;lon;timestamp;P1;durP1;ratioP1;P2;durP2;ratioP2
50757;SDS011;36732;47.980;11.652;2022-07-05T00:01:55;1.00;;;0.73;;
50757;SDS011;36732;47.980;11.652;2022-07-05T00:04:21;1.58;;;0.90;;
50757;SDS011;36732;47.980;11.652;2022-07-05T00:06:47;1.13;;;0.93;;
50757;SDS011;36732;47.980;11.652;2022-07-05T00:09:30;1.70;;;1.10;;
50757;SDS011;36732;47.980;11.652;2022-07-05T00:11:56;0.80;;;0.70;;
50757;SDS011;36732;47.980;11.652;2022-07-05T00:14:22;2.05;;;1.08;;
50757;SDS011;36732;47.980;11.652;2022-07-05T00:16:48;1.33;;;1.13;;
50757;SDS011;36732;47.980;11.652;2022-07-05T00:19:14;2.88;;;1.00;;
50757;SDS011;36732;47.980;11.652;2022-07-05T00:21:40;5.28;;;0.80;;
50757;SDS011;36732;47.980;11.652;2022-07-05T00:24:06;1.17;;;0.80;;
50757;SDS011;36732;47.980;11.652;2022-07-05T00:26:32;0.80;;;0.70;;
50757;SDS011;36732;47.980;11.652;2022-07-05T00:28:57;1.40;;;0.80;;
50757;SDS011;36732;47.980;11.652;2022-07-05T00:31:23;1.73;;;0.70;;
50757;SDS011;36732;47.980;11.652;2022-07-05T00:33:49;2.13;;;0.70;;
50757;SDS011;36732;47.980;11.652;2022-07-05T00:36:15;3.22;;;0.57;;
50757;SDS011;36732;47.980;11.652;2022-07-05T00:38:40;1.60;;;0.88;;
50757;SDS011;36732;47.980;11.652;2022-07-05T00:41:06;0.82;;;0.50;;
50757;SDS011;36732;47.980;11.652;2022-07-05T00:43:32;1.40;;;0.75;;
50757;SDS011;36732;47.980;11.652;2022-07-05T00:45:57;0.52;;;0.52;;
50757;SDS011;36732;47.980;11.652;2022-07-05T00:48:23;1.20;;;0.50;;
50757;SDS011;36732;47.980;11.652;2022-07-05T00:50:49;1.67;;;0.60;;
50757;SDS011;36732;47.980;11.652;2022-07-05T00:53:16;0.98;;;0.50;;
50757;SDS011;36732;47.980;11.652;2022-07-05T00:55:45;0.85;;;0.80;;
50757;SDS011;36732;47.980;11.652;2022-07-05T00:58:12;0.68;;;0.60;;
50757;SDS011;36732;47.980;11.652;2022-07-05T01:00:37;0.52;;;0.30;;
50757;SDS011;36732;47.980;11.652;2022-07-05T01:03:03;1.05;;;0.50;;
50757;SDS011;36732;47.980;11.652;2022-07-05T01:05:29;0.40;;;0.40;;
50757;SDS011;36732;47.980;11.652;2022-07-05T01:07:57;5.93;;;0.65;;
50757;SDS011;36732;47.980;11.652;2022-07-05T01:10:25;2.05;;;0.45;;
50757;SDS011;36732;47.980;11.652;2022-07-05T01:12:52;30.50;;;2.25;;
50757;SDS011;36732;47.980;11.652;2022-07-05T01:15:20;1.75;;;0.63;;
50757;SDS011;36732;47.980;11.652;2022-07-05T01:17:46;0.65;;;0.50;;
50757;SDS011;36732;47.980;11.652;2022-07-05T01:20:12;1.83;;;0.80;;
50757;SDS011;36732;47.980;11.652;2022-07-05T01:22:52;1.02;;;0.40;;
50757;SDS011;36732;47.980;11.652;2022-07-05T01:25:20;1.42;;;0.73;;
50757;SDS011;36732;47.980;11.652;2022-07-05T01:27:48;0.50;;;0.45;;
50757;SDS011;36732;47.980;11.652;2022-07-05T01:30:15;1.23;;;0.70;;
50757;SDS011;36732;47.980;11.652;2022-07-05T01:32:42;1.00;;;0.60;;
50757;SDS011;36732;47.980;11.652;2022-07-05T01:35:08;1.73;;;1.08;;
50757;SDS011;36732;47.980;11.652;2022-07-05T01:37:36;0.85;;;0.60;;
50757;SDS011;36732;47.980;11.652;2022-07-05T01:40:02;0.50;;;0.47;;
50757;SDS011;36732;47.980;11.652;2022-07-05T01:42:29;0.70;;;0.60;;
50757;SDS011;36732;47.980;11.652;2022-07-05T01:44:55;0.95;;;0.50;;
50757;SDS011;36732;47.980;11.652;2022-07-05T01:47:22;1.08;;;0.63;;
50757;SDS011;36732;47.980;11.652;2022-07-05T01:49:48;1.77;;;0.90;;
50757;SDS011;36732;47.980;11.652;2022-07-05T01:52:20;1.17;;;0.70;;
50757;SDS011;36732;47.980;11.652;2022-07-05T01:54:47;1.23;;;0.70;;
50757;SDS011;36732;47.980;11.652;2022-07-05T01:57:13;1.80;;;0.70;;
50757;SDS011;36732;47.980;11.652;2022-07-05T01:59:39;0.80;;;0.60;;
50757;SDS011;36732;47.980;11.652;2022-07-05T02:02:05;1.00;;;0.63;;
50757;SDS011;36732;47.980;11.652;2022-07-05T02:04:33;1.15;;;0.75;;
50757;SDS011;36732;47.980;11.652;2022-07-05T02:07:05;0.93;;;0.68;;
50757;SDS011;36732;47.980;11.652;2022-07-05T02:09:32;1.30;;;0.90;;
50757;SDS011;36732;47.980;11.652;2022-07-05T02:11:58;1.40;;;1.00;;
50757;SDS011;36732;47.980;11.652;2022-07-05T02:14:25;4.90;;;0.85;;
50757;SDS011;36732;47.980;11.652;2022-07-05T02:16:51;1.52;;;1.00;;
50757;SDS011;36732;47.980;11.652;2022-07-05T02:19:16;1.48;;;0.50;;
50757;SDS011;36732;47.980;11.652;2022-07-05T02:21:42;0.75;;;0.60;;
50757;SDS011;36732;47.980;11.652;2022-07-05T02:24:08;1.80;;;0.57;;
50757;SDS011;36732;47.980;11.652;2022-07-05T02:26:34;0.55;;;0.55;;
50757;SDS011;36732;47.980;11.652;2022-07-05T02:29:00;3.63;;;0.73;;
50757;SDS011;36732;47.980;11.652;2022-07-05T02:31:28;2.30;;;0.70;;
50757;SDS011;36732;47.980;11.652;2022-07-05T02:33:54;2.45;;;0.90;;
50757;SDS011;36732;47.980;11.652;2022-07-05T02:36:19;1.58;;;0.50;;
50757;SDS011;36732;47.980;11.652;2022-07-05T02:38:45;1.88;;;0.60;;
50757;SDS011;36732;47.980;11.652;2022-07-05T02:41:11;1.45;;;0.60;;
50757;SDS011;36732;47.980;11.652;2022-07-05T02:43:37;1.00;;;0.63;;
50757;SDS011;36732;47.980;11.652;2022-07-05T02:46:04;13.90;;;1.17;;
50757;SDS011;36732;47.980;11.652;2022-07-05T02:48:32;0.50;;;0.50;;
50757;SDS011;36732;47.980;11.652;2022-07-05T02:50:59;0.57;;;0.50;;
50757;SDS011;36732;47.980;11.652;2022-07-05T02:53:25;0.80;;;0.65;;
50757;SDS011;36732;47.980;11.652;2022-07-05T02:55:51;2.05;;;0.82;;
50757;SDS011;36732;47.980;11.652;2022-07-05T02:58:17;0.68;;;0.43;;
50757;SDS011;36732;47.980;11.652;2022-07-05T03:00:46;1.85;;;0.60;;
50757;SDS011;36732;47.980;11.652;2022-07-05T03:03:13;2.90;;;0.70;;
50757;SDS011;36732;47.980;11.652;2022-07-05T03:05:40;0.73;;;0.50;;
50757;SDS011;36732;47.980;11.652;2022-07-05T03:08:06;0.70;;;0.70;;
50757;SDS011;36732;47.980;11.652;2022-07-05T03:10:32;0.65;;;0.65;;
50757;SDS011;36732;47.980;11.652;2022-07-05T03:12:59;0.95;;;0.60;;
50757;SDS011;36732;47.980;11.652;2022-07-05T03:15:25;0.60;;;0.60;;
50757;SDS011;36732;47.980;11.652;2022-07-05T03:17:50;1.25;;;0.85;;
50757;SDS011;36732;47.980;11.652;2022-07-05T03:20:16;1.42;;;0.70;;
50757;SDS011;36732;47.980;11.652;2022-07-05T03:22:42;0.85;;;0.70;;
50757;SDS011;36732;47.980;11.652;2022-07-05T03:25:08;2.35;;;0.90;;
50757;SDS011;36732;47.980;11.652;2022-07-05T03:27:34;1.17;;;1.00;;
50757;SDS011;36732;47.980;11.652;2022-07-05T03:30:00;1.13;;;0.70;;
50757;SDS011;36732;47.980;11.652;2022-07-05T03:32:27;1.90;;;0.90;;
50757;SDS011;36732;47.980;11.652;2022-07-05T03:34:53;1.35;;;0.88;;
50757;SDS011;36732;47.980;11.652;2022-07-05T03:37:19;2.03;;;0.95;;
50757;SDS011;36732;47.980;11.652;2022-07-05T03:39:44;1.40;;;0.90;;
50757;SDS011;36732;47.980;11.652;2022-07-05T03:42:10;1.05;;;0.80;;
50757;SDS011;36732;47.980;11.652;2022-07-05T03:44:36;1.25;;;1.13;;
50757;SDS011;36732;47.980;11.652;2022-07-05T03:47:01;1.70;;;1.33;;
50757;SDS011;36732;47.980;11.652;2022-07-05T03:49:27;1.85;;;0.93;;
50757;SDS011;36732;47.980;11.652;2022-07-05T03:51:53;1.00;;;0.90;;
50757;SDS011;36732;47.980;11.652;2022-07-05T03:54:19;1.58;;;0.90;;
50757;SDS011;36732;47.980;11.652;2022-07-05T03:56:44;2.72;;;1.02;;
50757;SDS011;36732;47.980;11.652;2022-07-05T03:59:10;1.73;;;0.70;;
50757;SDS011;36732;47.980;11.652;2022-07-05T04:01:36;1.35;;;0.80;;
50757;SDS011;36732;47.980;11.652;2022-07-05T04:04:02;3.05;;;0.73;;
50757;SDS011;36732;47.980;11.652;2022-07-05T04:06:27;1.15;;;0.80;;
50757;SDS011;36732;47.980;11.652;2022-07-05T04:08:53;1.60;;;0.77;;
50757;SDS011;36732;47.980;11.652;2022-07-05T04:11:19;1.13;;;0.60;;
50757;SDS011;36732;47.980;11.652;2022-07-05T04:13:45;0.98;;;0.88;;
50757;SDS011;36732;47.980;11.652;2022-07-05T04:16:11;1.98;;;0.85;;
50757;SDS011;36732;47.980;11.652;2022-07-05T04:18:37;1.45;;;0.80;;
50757;SDS011;36732;47.980;11.652;2022-07-05T04:21:03;3.50;;;0.70;;
50757;SDS011;36732;47.980;11.652;2022-07-05T04:23:30;0.60;;;0.57;;
50757;SDS011;36732;47.980;11.652;2022-07-05T04:25:55;0.45;;;0.45;;
50757;SDS011;36732;47.980;11.652;2022-07-05T04:28:21;2.13;;;0.88;;
50757;SDS011;36732;47.980;11.652;2022-07-05T04:30:47;0.70;;;0.57;;
50757;SDS011;36732;47.980;11.652;2022-07-05T04:33:13;1.63;;;0.50;;
50757;SDS011;36732;47.980;11.652;2022-07-05T04:35:38;2.72;;;0.90;;
50757;SDS011;36732;47.980;11.652;2022-07-05T04:38:04;2.20;;;0.75;;
50757;SDS011;36732;47.980;11.652;2022-07-05T04:40:30;1.33;;;0.60;;
50757;SDS011;36732;47.980;11.652;2022-07-05T04:42:56;2.63;;;0.60;;
50757;SDS011;36732;47.980;11.652;2022-07-05T04:45:21;3.33;;;0.55;;
50757;SDS011;36732;47.980;11.652;2022-07-05T04:47:47;0.35;;;0.32;;
50757;SDS011;36732;47.980;11.652;2022-07-05T04:50:13;2.88;;;0.60;;
50757;SDS011;36732;47.980;11.652;2022-07-05T04:52:39;0.70;;;0.40;;
50757;SDS011;36732;47.980;11.652;2022-07-05T04:55:04;0.75;;;0.60;;
50757;SDS011;36732;47.980;11.652;2022-07-05T04:57:40;1.08;;;0.63;;
50757;SDS011;36732;47.980;11.652;2022-07-05T05:00:11;1.48;;;0.52;;
50757;SDS011;36732;47.980;11.652;2022-07-05T05:02:39;0.68;;;0.52;;
50757;SDS011;36732;47.980;11.652;2022-07-05T05:05:06;1.25;;;0.65;;
50757;SDS011;36732;47.980;11.652;2022-07-05T05:07:33;3.30;;;0.68;;
50757;SDS011;36732;47.980;11.652;2022-07-05T05:09:59;4.38;;;0.70;;
50757;SDS011;36732;47.980;11.652;2022-07-05T05:12:26;0.50;;;0.40;;
50757;SDS011;36732;47.980;11.652;2022-07-05T05:14:51;1.05;;;0.70;;
50757;SDS011;36732;47.980;11.652;2022-07-05T05:17:17;0.85;;;0.50;;
50757;SDS011;36732;47.980;11.652;2022-07-05T05:19:43;1.58;;;0.50;;
50757;SDS011;36732;47.980;11.652;2022-07-05T05:22:09;1.58;;;0.63;;
50757;SDS011;36732;47.980;11.652;2022-07-05T05:24:35;0.95;;;0.70;;
50757;SDS011;36732;47.980;11.652;2022-07-05T05:27:01;6.85;;;0.85;;
50757;SDS011;36732;47.980;11.652;2022-07-05T05:29:27;0.57;;;0.50;;
50757;SDS011;36732;47.980;11.652;2022-07-05T05:31:53;1.63;;;0.70;;
50757;SDS011;36732;47.980;11.652;2022-07-05T05:34:19;2.33;;;0.73;;
50757;SDS011;36732;47.980;11.652;2022-07-05T05:36:45;1.95;;;0.60;;
50757;SDS011;36732;47.980;11.652;2022-07-05T05:39:11;11.20;;;1.35;;
50757;SDS011;36732;47.980;11.652;2022-07-05T05:41:38;1.25;;;0.70;;
50757;SDS011;36732;47.980;11.652;2022-07-05T05:44:04;2.10;;;0.73;;
50757;SDS011;36732;47.980;11.652;2022-07-05T05:46:30;2.53;;;0.65;;
50757;SDS011;36732;47.980;11.652;2022-07-05T05:48:55;1.92;;;0.63;;
50757;SDS011;36732;47.980;11.652;2022-07-05T05:51:21;1.88;;;0.60;;
50757;SDS011;36732;47.980;11.652;2022-07-05T05:53:47;0.98;;;0.75;;
50757;SDS011;36732;47.980;11.652;2022-07-05T05:56:13;1.38;;;0.60;;
50757;SDS011;36732;47.980;11.652;2022-07-05T05:58:38;2.92;;;0.80;;
50757;SDS011;36732;47.980;11.652;2022-07-05T06:01:04;0.70;;;0.50;;
50757;SDS011;36732;47.980;11.652;2022-07-05T06:03:30;1.23;;;0.63;;
50757;SDS011;36732;47.980;11.652;2022-07-05T06:05:56;1.35;;;0.60;;
50757;SDS011;36732;47.980;11.652;2022-07-05T06:08:22;2.20;;;0.70;;
50757;SDS011;36732;47.980;11.652;2022-07-05T06:10:48;1.27;;;0.60;;
50757;SDS011;36732;47.980;11.652;2022-07-05T06:13:14;0.77;;;0.70;;
50757;SDS011;36732;47.980;11.652;2022-07-05T06:15:40;2.15;;;0.98;;
50757;SDS011;36732;47.980;11.652;2022-07-05T06:18:07;5.30;;;0.85;;
50757;SDS011;36732;47.980;11.652;2022-07-05T06:20:35;1.23;;;0.60;;
50757;SDS011;36732;47.980;11.652;2022-07-05T06:23:03;3.10;;;0.80;;
50757;SDS011;36732;47.980;11.652;2022-07-05T06:25:30;0.88;;;0.70;;
50757;SDS011;36732;47.980;11.652;2022-07-05T06:28:04;3.22;;;0.90;;
50757;SDS011;36732;47.980;11.652;2022-07-05T06:30:32;0.68;;;0.68;;
50757;SDS011;36732;47.980;11.652;2022-07-05T06:33:00;2.53;;;0.80;;
50757;SDS011;36732;47.980;11.652;2022-07-05T06:35:26;1.00;;;0.90;;
50757;SDS011;36732;47.980;11.652;2022-07-05T06:37:58;1.85;;;0.90;;
50757;SDS011;36732;47.980;11.652;2022-07-05T06:40:25;2.65;;;1.50;;
50757;SDS011;36732;47.980;11.652;2022-07-05T06:43:00;1.45;;;1.30;;
50757;SDS011;36732;47.980;11.652;2022-07-05T06:45:29;1.63;;;1.52;;
50757;SDS011;36732;47.980;11.652;2022-07-05T06:47:58;2.17;;;1.63;;
50757;SDS011;36732;47.980;11.652;2022-07-05T06:50:30;1.80;;;1.50;;
50757;SDS011;36732;47.980;11.652;2022-07-05T06:53:00;1.75;;;1.48;;
50757;SDS011;36732;47.980;11.652;2022-07-05T06:55:26;1.83;;;1.45;;
50757;SDS011;36732;47.980;11.652;2022-07-05T06:57:59;1.73;;;1.63;;
50757;SDS011;36732;47.980;11.652;2022-07-05T07:00:30;4.82;;;2.13;;
50757;SDS011;36732;47.980;11.652;2022-07-05T07:02:57;2.22;;;1.38;;
50757;SDS011;36732;47.980;11.652;2022-07-05T07:05:23;2.25;;;1.42;;
50757;SDS011;36732;47.980;11.652;2022-07-05T07:07:50;2.15;;;1.95;;
50757;SDS011;36732;47.980;11.652;2022-07-05T07:10:34;1.95;;;1.60;;
50757;SDS011;36732;47.980;11.652;2022-07-05T07:13:00;2.45;;;1.88;;
50757;SDS011;36732;47.980;11.652;2022-07-05T07:15:27;3.35;;;1.70;;
50757;SDS011;36732;47.980;11.652;2022-07-05T07:17:53;3.00;;;1.65;;
50757;SDS011;36732;47.980;11.652;2022-07-05T07:20:20;2.83;;;1.52;;
50757;SDS011;36732;47.980;11.652;2022-07-05T07:22:45;1.83;;;1.30;;
50757;SDS011;36732;47.980;11.652;2022-07-05T07:25:11;1.52;;;1.42;;
50757;SDS011;36732;47.980;11.652;2022-07-05T07:27:44;1.58;;;1.48;;
50757;SDS011;36732;47.980;11.652;2022-07-05T07:30:15;3.72;;;1.63;;
50757;SDS011;36732;47.980;11.652;2022-07-05T07:32:45;1.70;;;1.60;;
50757;SDS011;36732;47.980;11.652;2022-07-05T07:35:11;2.15;;;1.75;;
50757;SDS011;36732;47.980;11.652;2022-07-05T07:37:37;2.97;;;1.75;;
50757;SDS011;36732;47.980;11.652;2022-07-05T07:40:03;2.83;;;1.30;;
50757;SDS011;36732;47.980;11.652;2022-07-05T07:42:30;1.98;;;1.60;;
50757;SDS011;36732;47.980;11.652;2022-07-05T07:44:56;1.40;;;1.30;;
50757;SDS011;36732;47.980;11.652;2022-07-05T07:47:22;1.63;;;1.20;;
50757;SDS011;36732;47.980;11.652;2022-07-05T07:49:48;1.60;;;1.50;;
50757;SDS011;36732;47.980;11.652;2022-07-05T07:52:14;2.47;;;1.70;;
50757;SDS011;36732;47.980;11.652;2022-07-05T07:54:40;2.78;;;1.38;;
50757;SDS011;36732;47.980;11.652;2022-07-05T07:57:06;1.70;;;1.48;;
50757;SDS011;36732;47.980;11.652;2022-07-05T07:59:32;1.52;;;1.35;;
50757;SDS011;36732;47.980;11.652;2022-07-05T08:01:58;1.83;;;1.45;;
50757;SDS011;36732;47.980;11.652;2022-07-05T08:04:24;3.10;;;1.45;;
50757;SDS011;36732;47.980;11.652;2022-07-05T08:06:50;1.45;;;1.35;;
50757;SDS011;36732;47.980;11.652;2022-07-05T08:09:15;1.98;;;1.77;;
50757;SDS011;36732;47.980;11.652;2022-07-05T08:11:41;4.93;;;1.50;;
50757;SDS011;36732;47.980;11.652;2022-07-05T08:14:07;1.85;;;1.40;;
50757;SDS011;36732;47.980;11.652;2022-07-05T08:16:33;2.03;;;1.42;;
50757;SDS011;36732;47.980;11.652;2022-07-05T08:18:59;1.77;;;1.58;;
50757;SDS011;36732;47.980;11.652;2022-07-05T08:21:43;2.05;;;1.48;;
50757;SDS011;36732;47.980;11.652;2022-07-05T08:24:10;2.05;;;1.58;;
50757;SDS011;36732;47.980;11.652;2022-07-05T08:26:37;2.05;;;1.25;;
50757;SDS011;36732;47.980;11.652;2022-07-05T08:29:07;1.77;;;0.98;;
50757;SDS011;36732;47.980;11.652;2022-07-05T08:31:37;2.17;;;1.20;;
50757;SDS011;36732;47.980;11.652;2022-07-05T08:34:06;2.75;;;1.15;;
50757;SDS011;36732;47.980;11.652;2022-07-05T08:36:32;1.10;;;1.00;;
50757;SDS011;36732;47.980;11.652;2022-07-05T08:38:58;1.10;;;1.00;;
50757;SDS011;36732;47.980;11.652;2022-07-05T08:41:24;1.25;;;1.10;;
50757;SDS011;36732;47.980;11.652;2022-07-05T08:43:50;1.10;;;1.00;;
50757;SDS011;36732;47.980;11.652;2022-07-05T08:46:17;1.23;;;1.13;;
50757;SDS011;36732;47.980;11.652;2022-07-05T08:48:44;2.17;;;1.10;;
50757;SDS011;36732;47.980;11.652;2022-07-05T08:51:15;2.33;;;1.20;;
50757;SDS011;36732;47.980;11.652;2022-07-05T08:53:43;1.08;;;0.98;;
50757;SDS011;36732;47.980;11.652;2022-07-05T08:56:11;1.42;;;1.30;;
50757;SDS011;36732;47.980;11.652;2022-07-05T08:58:39;4.43;;;1.48;;
50757;SDS011;36732;47.980;11.652;2022-07-05T09:01:05;1.35;;;1.00;;
50757;SDS011;36732;47.980;11.652;2022-07-05T09:03:34;1.20;;;1.00;;
50757;SDS011;36732;47.980;11.652;2022-07-05T09:06:09;1.65;;;1.10;;
50757;SDS011;36732;47.980;11.652;2022-07-05T09:08:38;1.85;;;1.20;;
50757;SDS011;36732;47.980;11.652;2022-07-05T09:11:09;1.15;;;1.05;;
50757;SDS011;36732;47.980;11.652;2022-07-05T09:13:38;1.53;;;1.17;;
50757;SDS011;36732;47.980;11.652;2022-07-05T09:16:06;1.55;;;1.10;;
50757;SDS011;36732;47.980;11.652;2022-07-05T09:18:48;5.15;;;1.30;;
50757;SDS011;36732;47.980;11.652;2022-07-05T09:21:22;1.58;;;1.00;;
50757;SDS011;36732;47.980;11.652;2022-07-05T09:23:58;2.70;;;1.43;;
50757;SDS011;36732;47.980;11.652;2022-07-05T09:26:36;1.25;;;1.10;;
50757;SDS011;36732;47.980;11.652;2022-07-05T09:29:22;2.05;;;1.30;;
50757;SDS011;36732;47.980;11.652;2022-07-05T09:31:48;2.22;;;1.25;;
50757;SDS011;36732;47.980;11.652;2022-07-05T09:34:15;1.42;;;1.10;;
50757;SDS011;36732;47.980;11.652;2022-07-05T09:37:02;1.20;;;1.10;;
50757;SDS011;36732;47.980;11.652;2022-07-05T09:42:10;0.98;;;0.98;;
50757;SDS011;36732;47.980;11.652;2022-07-05T09:47:20;1.27;;;0.93;;
50757;SDS011;36732;47.980;11.652;2022-07-05T09:49:56;12.35;;;3.25;;
50757;SDS011;36732;47.980;11.652;2022-07-05T09:52:39;3.63;;;1.88;;
50757;SDS011;36732;47.980;11.652;2022-07-05T09:55:16;1.77;;;1.30;;
50757;SDS011;36732;47.980;11.652;2022-07-05T09:57:43;2.80;;;1.10;;
50757;SDS011;36732;47.980;11.652;2022-07-05T10:00:18;1.73;;;1.02;;
50757;SDS011;36732;47.980;11.652;2022-07-05T10:02:53;3.13;;;1.40;;
50757;SDS011;36732;47.980;11.652;2022-07-05T10:05:27;4.40;;;1.02;;
50757;SDS011;36732;47.980;11.652;2022-07-05T10:07:58;2.22;;;1.10;;
50757;SDS011;36732;47.980;11.652;2022-07-05T10:10:26;1.45;;;1.20;;
50757;SDS011;36732;47.980;11.652;2022-07-05T10:12:57;2.95;;;1.20;;
50757;SDS011;36732;47.980;11.652;2022-07-05T10:15:30;4.68;;;1.63;;
50757;SDS011;36732;47.980;11.652;2022-07-05T10:20:56;1.40;;;1.00;;
50757;SDS011;36732;47.980;11.652;2022-07-05T10:23:24;2.85;;;1.27;;
50757;SDS011;36732;47.980;11.652;2022-07-05T10:25:50;3.58;;;1.48;;
50757;SDS011;36732;47.980;11.652;2022-07-05T10:28:17;3.35;;;1.15;;
50757;SDS011;36732;47.980;11.652;2022-07-05T10:30:45;3.22;;;1.13;;
50757;SDS011;36732;47.980;11.652;2022-07-05T10:33:14;2.35;;;0.90;;
50757;SDS011;36732;47.980;11.652;2022-07-05T10:35:46;1.77;;;1.10;;
50757;SDS011;36732;47.980;11.652;2022-07-05T10:38:12;2.40;;;1.00;;
50757;SDS011;36732;47.980;11.652;2022-07-05T10:40:39;2.75;;;1.00;;
50757;SDS011;36732;47.980;11.652;2022-07-05T10:43:08;2.38;;;1.20;;
50757;SDS011;36732;47.980;11.652;2022-07-05T10:45:35;3.65;;;1.20;;
50757;SDS011;36732;47.980;11.652;2022-07-05T10:50:53;1.52;;;1.00;;
50757;SDS011;36732;47.980;11.652;2022-07-05T10:53:21;2.08;;;0.95;;
50757;SDS011;36732;47.980;11.652;2022-07-05T10:55:59;2.00;;;1.10;;
50757;SDS011;36732;47.980;11.652;2022-07-05T10:58:31;3.67;;;1.10;;
50757;SDS011;36732;47.980;11.652;2022-07-05T11:11:36;2.70;;;1.02;;
50757;SDS011;36732;47.980;11.652;2022-07-05T11:14:30;2.00;;;1.20;;
50757;SDS011;36732;47.980;11.652;2022-07-05T11:17:18;1.30;;;1.08;;
50757;SDS011;36732;47.980;11.652;2022-07-05T11:22:26;1.88;;;0.95;;
50757;SDS011;36732;47.980;11.652;2022-07-05T11:24:53;1.00;;;0.93;;
50757;SDS011;36732;47.980;11.652;2022-07-05T11:27:21;1.30;;;1.02;;
50757;SDS011;36732;47.980;11.652;2022-07-05T11:29:47;1.20;;;1.10;;
50757;SDS011;36732;47.980;11.652;2022-07-05T11:32:22;2.60;;;1.30;;
50757;SDS011;36732;47.980;11.652;2022-07-05T11:35:12;1.30;;;1.05;;
50757;SDS011;36732;47.980;11.652;2022-07-05T11:38:00;0.90;;;0.82;;
50757;SDS011;36732;47.980;11.652;2022-07-05T11:40:34;1.00;;;0.82;;
50757;SDS011;36732;47.980;11.652;2022-07-05T11:43:03;1.55;;;1.10;;
50757;SDS011;36732;47.980;11.652;2022-07-05T11:45:32;0.85;;;0.75;;
50757;SDS011;36732;47.980;11.652;2022-07-05T11:47:58;1.65;;;1.35;;
50757;SDS011;36732;47.980;11.652;2022-07-05T11:50:27;2.15;;;1.13;;
50757;SDS011;36732;47.980;11.652;2022-07-05T11:53:01;1.67;;;1.00;;
50757;SDS011;36732;47.980;11.652;2022-07-05T11:55:28;2.67;;;1.08;;
50757;SDS011;36732;47.980;11.652;2022-07-05T11:57:56;1.80;;;1.00;;
50757;SDS011;36732;47.980;11.652;2022-07-05T12:00:30;2.85;;;1.30;;
50757;SDS011;36732;47.980;11.652;2022-07-05T12:03:01;1.98;;;1.00;;
50757;SDS011;36732;47.980;11.652;2022-07-05T12:05:31;1.60;;;1.00;;
50757;SDS011;36732;47.980;11.652;2022-07-05T12:07:57;1.10;;;0.98;;
50757;SDS011;36732;47.980;11.652;2022-07-05T12:10:24;1.75;;;1.00;;
50757;SDS011;36732;47.980;11.652;2022-07-05T12:13:09;1.75;;;1.17;;
50757;SDS011;36732;47.980;11.652;2022-07-05T12:15:35;2.33;;;1.40;;
50757;SDS011;36732;47.980;11.652;2022-07-05T12:18:03;3.00;;;0.98;;
50757;SDS011;36732;47.980;11.652;2022-07-05T12:20:31;1.40;;;1.27;;
50757;SDS011;36732;47.980;11.652;2022-07-05T12:22:59;2.08;;;1.10;;
50757;SDS011;36732;47.980;11.652;2022-07-05T12:25:26;2.45;;;1.17;;
50757;SDS011;36732;47.980;11.652;2022-07-05T12:27:54;1.33;;;0.93;;
50757;SDS011;36732;47.980;11.652;2022-07-05T12:30:22;1.63;;;1.10;;
50757;SDS011;36732;47.980;11.652;2022-07-05T12:38:05;1.13;;;1.02;;
50757;SDS011;36732;47.980;11.652;2022-07-05T12:40:33;1.63;;;0.98;;
50757;SDS011;36732;47.980;11.652;2022-07-05T12:45:40;1.77;;;1.02;;
50757;SDS011;36732;47.980;11.652;2022-07-05T12:48:08;1.95;;;1.00;;
50757;SDS011;36732;47.980;11.652;2022-07-05T12:50:49;1.95;;;1.10;;
50757;SDS011;36732;47.980;11.652;2022-07-05T12:53:16;1.05;;;0.90;;
50757;SDS011;36732;47.980;11.652;2022-07-05T12:58:55;2.20;;;0.98;;
50757;SDS011;36732;47.980;11.652;2022-07-05T13:04:03;5.57;;;1.25;;
50757;SDS011;36732;47.980;11.652;2022-07-05T13:07:09;3.40;;;1.20;;
50757;SDS011;36732;47.980;11.652;2022-07-05T13:12:04;1.35;;;1.13;;
50757;SDS011;36732;47.980;11.652;2022-07-05T13:14:33;2.53;;;0.88;;
50757;SDS011;36732;47.980;11.652;2022-07-05T13:17:01;1.48;;;1.00;;
50757;SDS011;36732;47.980;11.652;2022-07-05T13:19:27;2.58;;;1.00;;
50757;SDS011;36732;47.980;11.652;2022-07-05T13:21:52;1.85;;;1.10;;
50757;SDS011;36732;47.980;11.652;2022-07-05T13:24:18;1.58;;;1.10;;
50757;SDS011;36732;47.980;11.652;2022-07-05T13:26:44;1.83;;;1.20;;
50757;SDS011;36732;47.980;11.652;2022-07-05T13:29:10;0.90;;;0.90;;
50757;SDS011;36732;47.980;11.652;2022-07-05T13:31:36;1.98;;;0.95;;
50757;SDS011;36732;47.980;11.652;2022-07-05T13:34:01;1.52;;;0.75;;
50757;SDS011;36732;47.980;11.652;2022-07-05T13:36:27;1.80;;;0.95;;
50757;SDS011;36732;47.980;11.652;2022-07-05T13:38:53;1.25;;;0.90;;
50757;SDS011;36732;47.980;11.652;2022-07-05T13:41:19;1.35;;;0.93;;
50757;SDS011;36732;47.980;11.652;2022-07-05T13:43:45;1.10;;;1.00;;
50757;SDS011;36732;47.980;11.652;2022-07-05T13:46:11;1.50;;;1.13;;
50757;SDS011;36732;47.980;11.652;2022-07-05T13:48:38;1.20;;;0.85;;
50757;SDS011;36732;47.980;11.652;2022-07-05T13:51:04;1.92;;;0.82;;
50757;SDS011;36732;47.980;11.652;2022-07-05T13:53:31;3.55;;;1.13;;
50757;SDS011;36732;47.980;11.652;2022-07-05T13:55:57;1.40;;;0.82;;
50757;SDS011;36732;47.980;11.652;2022-07-05T13:58:23;0.80;;;0.80;;
50757;SDS011;36732;47.980;11.652;2022-07-05T14:00:49;2.13;;;1.05;;
50757;SDS011;36732;47.980;11.652;2022-07-05T14:03:15;3.58;;;0.80;;
50757;SDS011;36732;47.980;11.652;2022-07-05T14:05:42;2.72;;;1.10;;
50757;SDS011;36732;47.980;11.652;2022-07-05T14:08:11;1.38;;;1.10;;
50757;SDS011;36732;47.980;11.652;2022-07-05T14:10:38;1.08;;;0.80;;
50757;SDS011;36732;47.980;11.652;2022-07-05T14:13:05;1.10;;;1.00;;
50757;SDS011;36732;47.980;11.652;2022-07-05T14:15:31;1.50;;;0.80;;
50757;SDS011;36732;47.980;11.652;2022-07-05T14:17:58;3.50;;;1.05;;
50757;SDS011;36732;47.980;11.652;2022-07-05T14:20:27;0.90;;;0.90;;
50757;SDS011;36732;47.980;11.652;2022-07-05T14:22:54;0.93;;;0.80;;
50757;SDS011;36732;47.980;11.652;2022-07-05T14:25:20;2.28;;;0.70;;
50757;SDS011;36732;47.980;11.652;2022-07-05T14:27:45;2.25;;;0.80;;
50757;SDS011;36732;47.980;11.652;2022-07-05T14:30:11;2.90;;;0.98;;
50757;SDS011;36732;47.980;11.652;2022-07-05T14:32:37;4.65;;;1.10;;
50757;SDS011;36732;47.980;11.652;2022-07-05T14:35:04;3.03;;;0.82;;
50757;SDS011;36732;47.980;11.652;2022-07-05T14:37:30;2.53;;;0.80;;
50757;SDS011;36732;47.980;11.652;2022-07-05T14:39:56;3.13;;;0.85;;
50757;SDS011;36732;47.980;11.652;2022-07-05T14:42:22;0.88;;;0.88;;
50757;SDS011;36732;47.980;11.652;2022-07-05T14:44:47;0.98;;;0.90;;
50757;SDS011;36732;47.980;11.652;2022-07-05T14:47:13;4.70;;;1.10;;
50757;SDS011;36732;47.980;11.652;2022-07-05T14:49:39;1.50;;;0.70;;
50757;SDS011;36732;47.980;11.652;2022-07-05T14:52:05;1.25;;;0.88;;
50757;SDS011;36732;47.980;11.652;2022-07-05T14:54:31;2.22;;;0.80;;
50757;SDS011;36732;47.980;11.652;2022-07-05T14:56:56;1.50;;;0.95;;
50757;SDS011;36732;47.980;11.652;2022-07-05T14:59:22;1.27;;;0.93;;
50757;SDS011;36732;47.980;11.652;2022-07-05T15:01:48;1.95;;;1.00;;
50757;SDS011;36732;47.980;11.652;2022-07-05T15:04:13;2.83;;;1.00;;
50757;SDS011;36732;47.980;11.652;2022-07-05T15:06:39;2.05;;;1.20;;
50757;SDS011;36732;47.980;11.652;2022-07-05T15:09:06;1.08;;;0.75;;
50757;SDS011;36732;47.980;11.652;2022-07-05T15:11:32;1.20;;;1.10;;
50757;SDS011;36732;47.980;11.652;2022-07-05T15:13:58;1.00;;;0.90;;
50757;SDS011;36732;47.980;11.652;2022-07-05T15:16:26;2.47;;;0.90;;
50757;SDS011;36732;47.980;11.652;2022-07-05T15:18:52;3.88;;;0.90;;